Time;durP1;ratioP1;P1;durP2;ratioP2;P2;SDS_P1;SDS_P2;PMS_P1;PMS_P2;Temp;Humidity;BMP_temperature;BMP_pressure;BME280_temperature;BME280_humidity;BME280_pressure;Samples;Min_cycle;Max_cycle;Signal;HPM_P1;HPM_P2
2021/06/23 00:02:12;;;;;;;15.60;12.20;;;16.20;99.90;;;;;;5083555;28;20495;-83
2021/06/23 00:04:40;;;;;;;17.30;12.87;;;16.20;99.90;;;;;;5079077;28;20461;-81
2021/06/23 00:07:07;;;;;;;18.73;13.10;;;16.20;99.90;;;;;;5080681;28;20454;-81
2021/06/23 00:09:35;;;;;;;18.63;12.20;;;16.20;99.90;;;;;;5077256;28;20457;-81
2021/06/23 00:12:02;;;;;;;21.27;11.90;;;16.20;99.90;;;;;;5076891;28;20460;-81
2021/06/23 00:14:29;;;;;;;15.93;11.93;;;16.20;99.90;;;;;;5079429;28;20546;-82
2021/06/23 00:16:56;;;;;;;16.67;12.80;;;16.10;99.90;;;;;;5076099;28;20484;-81
2021/06/23 00:19:24;;;;;;;15.97;11.63;;;16.10;99.90;;;;;;5077995;28;20486;-81
2021/06/23 00:21:51;;;;;;;20.80;12.07;;;16.00;99.90;;;;;;5075669;28;20489;-81
2021/06/23 00:24:17;;;;;;;15.27;13.67;;;16.00;99.90;;;;;;5076203;28;20461;-81
2021/06/23 00:26:46;;;;;;;14.80;12.40;;;16.10;99.90;;;;;;5082099;28;20507;-82
2021/06/23 00:29:13;;;;;;;21.70;12.90;;;16.10;99.90;;;;;;5077325;28;20462;-81
2021/06/23 00:31:40;;;;;;;16.40;12.40;;;16.10;99.90;;;;;;5087747;28;20923;-83
2021/06/23 00:34:10;;;;;;;16.70;13.37;;;16.10;99.90;;;;;;5084674;28;20452;-81
2021/06/23 00:36:38;;;;;;;22.10;13.30;;;16.10;99.90;;;;;;5085323;28;20464;-83
2021/06/23 00:39:05;;;;;;;15.63;14.00;;;16.10;99.90;;;;;;5079425;28;20569;-83
2021/06/23 00:41:32;;;;;;;16.83;13.83;;;16.10;99.90;;;;;;5076785;28;20479;-82
2021/06/23 00:44:00;;;;;;;17.87;13.40;;;16.00;99.90;;;;;;5084129;28;20458;-81
2021/06/23 00:46:27;;;;;;;19.07;14.30;;;16.00;99.90;;;;;;5082629;28;20461;-83
2021/06/23 00:48:57;;;;;;;18.77;14.13;;;16.10;99.90;;;;;;5077531;28;20471;-81
2021/06/23 00:51:26;;;;;;;14.23;12.43;;;16.10;99.90;;;;;;5093330;28;20450;-81
2021/06/23 00:53:53;;;;;;;18.53;13.77;;;16.10;99.90;;;;;;5078974;28;20515;-81
2021/06/23 00:56:20;;;;;;;13.40;11.50;;;16.10;99.90;;;;;;5082701;28;20450;-82
2021/06/23 00:58:49;;;;;;;20.63;13.30;;;16.10;99.90;;;;;;5085626;28;20462;-83
2021/06/23 01:01:17;;;;;;;19.00;13.40;;;16.10;99.90;;;;;;5081345;28;21008;-81
2021/06/23 01:03:45;;;;;;;14.30;12.70;;;16.00;99.90;;;;;;5080412;28;20464;-82
2021/06/23 01:06:12;;;;;;;15.70;12.60;;;16.00;99.90;;;;;;5085940;28;20461;-82
2021/06/23 01:08:39;;;;;;;16.00;13.20;;;16.00;99.90;;;;;;5091218;28;20466;-81
2021/06/23 01:11:07;;;;;;;16.67;13.50;;;15.90;99.90;;;;;;5080308;28;20531;-83
2021/06/23 01:13:36;;;;;;;16.33;13.10;;;15.90;99.90;;;;;;5074139;28;20454;-81
2021/06/23 01:16:06;;;;;;;13.07;11.70;;;15.90;99.90;;;;;;5088567;28;20468;-81
2021/06/23 01:18:39;;;;;;;16.37;13.20;;;15.80;99.90;;;;;;5086693;28;20882;-81
2021/06/23 01:21:08;;;;;;;14.77;12.27;;;15.80;99.90;;;;;;5086888;28;20489;-82
2021/06/23 01:23:36;;;;;;;15.67;12.57;;;15.70;99.90;;;;;;5079538;28;20462;-81
2021/06/23 01:26:04;;;;;;;19.13;13.43;;;15.80;99.90;;;;;;5080937;28;20534;-81
2021/06/23 01:28:31;;;;;;;18.63;13.60;;;15.80;99.90;;;;;;5081972;28;20466;-82
2021/06/23 01:30:58;;;;;;;21.10;13.60;;;15.70;99.90;;;;;;5082715;28;20476;-83
2021/06/23 01:33:27;;;;;;;13.63;12.20;;;15.70;99.90;;;;;;5086282;28;21069;-81
2021/06/23 01:35:54;;;;;;;15.10;13.50;;;15.70;99.90;;;;;;5089629;28;20449;-82
2021/06/23 01:38:21;;;;;;;14.63;12.90;;;15.80;99.90;;;;;;5080914;28;20473;-81
2021/06/23 01:40:50;;;;;;;14.93;12.47;;;15.80;99.90;;;;;;5084896;28;20468;-82
2021/06/23 01:43:17;;;;;;;17.97;12.83;;;15.80;99.90;;;;;;5081139;28;20493;-82
2021/06/23 01:45:46;;;;;;;13.03;11.77;;;15.80;99.90;;;;;;5080154;28;20482;-83
2021/06/23 01:48:15;;;;;;;14.70;12.90;;;15.80;99.90;;;;;;5084700;28;20481;-82
2021/06/23 01:50:42;;;;;;;16.00;12.67;;;15.80;99.90;;;;;;5087898;28;20490;-83
2021/06/23 01:53:09;;;;;;;16.67;12.67;;;15.70;99.90;;;;;;5083347;28;20477;-83
2021/06/23 01:55:36;;;;;;;23.80;14.20;;;15.70;99.90;;;;;;5084498;28;20463;-83
2021/06/23 01:58:06;;;;;;;18.10;12.30;;;15.70;99.90;;;;;;5086509;28;20938;-81
2021/06/23 02:00:41;;;;;;;18.10;13.13;;;15.70;99.90;;;;;;5084164;28;20516;-82
2021/06/23 02:03:17;;;;;;;20.90;13.53;;;15.80;99.90;;;;;;5094898;28;20488;-82
2021/06/23 02:05:54;;;;;;;16.13;13.30;;;15.80;99.90;;;;;;5085755;28;20464;-80
2021/06/23 02:08:35;;;;;;;22.77;14.07;;;15.80;99.90;;;;;;5082825;28;20474;-81
2021/06/23 02:11:24;;;;;;;16.83;14.03;;;15.80;99.90;;;;;;5089778;28;20465;-81
2021/06/23 02:14:27;;;;;;;16.10;11.90;;;15.80;99.90;;;;;;5089422;28;20547;-83
2021/06/23 02:16:56;;;;;;;20.10;11.90;;;15.80;99.90;;;;;;5082038;28;20514;-80
2021/06/23 02:19:23;;;;;;;20.17;13.40;;;15.80;99.90;;;;;;5085400;28;20629;-81
2021/06/23 02:21:51;;;;;;;16.63;12.70;;;15.80;99.90;;;;;;5080002;28;20490;-81
2021/06/23 02:24:18;;;;;;;16.40;12.93;;;15.80;99.90;;;;;;5084003;28;20461;-81
2021/06/23 02:26:45;;;;;;;16.10;11.90;;;15.80;99.90;;;;;;5078360;28;20469;-81
2021/06/23 02:29:12;;;;;;;17.70;12.80;;;15.80;99.90;;;;;;5079121;28;20565;-81
2021/06/23 02:31:41;;;;;;;14.40;11.77;;;15.80;99.90;;;;;;5086002;28;20569;-82
2021/06/23 02:34:10;;;;;;;20.13;14.53;;;15.80;99.90;;;;;;5082689;28;20479;-82
2021/06/23 02:36:38;;;;;;;18.30;12.87;;;15.80;99.90;;;;;;5085486;28;20648;-82
2021/06/23 02:39:06;;;;;;;16.87;13.03;;;15.70;99.90;;;;;;5088467;28;21123;-82
2021/06/23 02:41:33;;;;;;;18.10;14.00;;;15.80;99.90;;;;;;5089260;28;20476;-81
2021/06/23 02:44:01;;;;;;;16.63;13.77;;;15.80;99.90;;;;;;5089255;28;20473;-82
2021/06/23 02:46:28;;;;;;;15.07;11.37;;;15.80;99.90;;;;;;5088173;28;20989;-82
2021/06/23 02:48:58;;;;;;;19.90;14.17;;;15.80;99.90;;;;;;5085377;28;20468;-85
2021/06/23 02:51:26;;;;;;;15.40;13.47;;;15.90;99.90;;;;;;5089184;28;20837;-81
2021/06/23 02:53:55;;;;;;;18.60;11.70;;;15.90;99.90;;;;;;5091020;28;20552;-82
2021/06/23 02:56:23;;;;;;;15.53;13.83;;;15.80;99.90;;;;;;5088267;28;20556;-85
2021/06/23 02:58:51;;;;;;;15.07;13.50;;;15.80;99.90;;;;;;5085936;28;20484;-82
2021/06/23 03:01:18;;;;;;;17.20;13.53;;;15.70;99.90;;;;;;5090818;28;21086;-82
2021/06/23 03:03:46;;;;;;;18.50;13.03;;;15.70;99.90;;;;;;5088040;28;20488;-81
2021/06/23 03:06:15;;;;;;;17.33;12.50;;;15.70;99.90;;;;;;5084095;28;20464;-82
2021/06/23 03:08:42;;;;;;;15.97;14.20;;;15.70;99.90;;;;;;5088948;28;20464;-82
2021/06/23 03:11:09;;;;;;;21.70;12.27;;;15.70;99.90;;;;;;5080400;28;20468;-85
2021/06/23 03:13:36;;;;;;;16.03;13.27;;;15.70;99.90;;;;;;5088975;28;20455;-82
2021/06/23 03:16:04;;;;;;;21.30;13.37;;;15.60;99.90;;;;;;5091677;28;20458;-82
2021/06/23 03:18:32;;;;;;;17.20;12.60;;;15.60;99.90;;;;;;5080220;28;20472;-82
2021/06/23 03:20:59;;;;;;;19.77;12.87;;;15.60;99.90;;;;;;5083430;28;21081;-82
2021/06/23 03:23:28;;;;;;;20.50;13.10;;;15.60;99.90;;;;;;5089751;28;20485;-82
2021/06/23 03:25:55;;;;;;;15.43;13.47;;;15.60;99.90;;;;;;5086134;28;20458;-84
2021/06/23 03:28:22;;;;;;;14.90;12.77;;;15.60;99.90;;;;;;5095606;28;20475;-81
2021/06/23 03:30:49;;;;;;;17.83;13.20;;;15.70;99.90;;;;;;5088799;28;20519;-84
2021/06/23 03:33:16;;;;;;;22.63;12.90;;;15.60;99.90;;;;;;5087187;28;20563;-82
2021/06/23 03:35:43;;;;;;;13.93;11.73;;;15.70;99.90;;;;;;5083140;28;20870;-82
2021/06/23 03:38:10;;;;;;;22.70;13.80;;;15.60;99.90;;;;;;5085463;28;20457;-82
2021/06/23 03:40:38;;;;;;;16.57;12.37;;;15.60;99.90;;;;;;5087735;28;20469;-83
2021/06/23 03:43:05;;;;;;;23.43;12.60;;;15.60;99.90;;;;;;5080900;28;20490;-82
2021/06/23 03:45:32;;;;;;;17.43;11.67;;;15.60;99.90;;;;;;5081331;28;20658;-82
2021/06/23 03:47:59;;;;;;;21.73;13.80;;;15.60;99.90;;;;;;5089612;28;20449;-81
2021/06/23 03:50:29;;;;;;;21.67;12.80;;;15.60;99.90;;;;;;5080344;28;20452;-82
2021/06/23 03:52:56;;;;;;;21.37;12.83;;;15.60;99.90;;;;;;5078089;28;20782;-82
2021/06/23 03:55:26;;;;;;;18.97;13.40;;;15.60;99.90;;;;;;5080354;28;20488;-82
2021/06/23 03:57:57;;;;;;;17.60;12.90;;;15.60;99.90;;;;;;5090617;28;20522;-81
2021/06/23 04:00:25;;;;;;;15.97;12.50;;;15.60;99.90;;;;;;5083784;28;20583;-82
2021/06/23 04:02:52;;;;;;;15.30;12.40;;;15.70;99.90;;;;;;5084205;28;20493;-82
2021/06/23 04:05:20;;;;;;;17.57;12.47;;;15.70;99.90;;;;;;5077780;28;20587;-85
2021/06/23 04:07:47;;;;;;;23.03;14.43;;;15.60;99.90;;;;;;5078000;28;20465;-81
2021/06/23 04:10:15;;;;;;;20.07;12.53;;;15.60;99.90;;;;;;5081382;28;20532;-81
2021/06/23 04:12:43;;;;;;;15.73;13.40;;;15.60;99.90;;;;;;5077676;28;20472;-85
2021/06/23 04:15:13;;;;;;;16.87;12.87;;;15.60;99.90;;;;;;5076171;28;20499;-82
2021/06/23 04:17:41;;;;;;;18.30;12.80;;;15.60;99.90;;;;;;5074832;28;20454;-82
2021/06/23 04:20:09;;;;;;;18.33;12.93;;;15.60;99.90;;;;;;5074577;28;20474;-84
2021/06/23 04:22:36;;;;;;;13.77;12.30;;;15.60;99.90;;;;;;5076871;28;20491;-82
2021/06/23 04:25:07;;;;;;;15.03;13.27;;;15.60;99.90;;;;;;5082782;28;20548;-82
2021/06/23 04:27:33;;;;;;;23.77;12.70;;;15.60;99.90;;;;;;5079546;28;20456;-84
2021/06/23 04:30:00;;;;;;;17.30;12.63;;;15.60;99.90;;;;;;5074541;28;21019;-82
2021/06/23 04:32:28;;;;;;;16.83;11.60;;;15.60;99.90;;;;;;5075790;28;20951;-82
2021/06/23 04:34:55;;;;;;;15.30;12.80;;;15.60;99.90;;;;;;5080925;28;20462;-82
2021/06/23 04:37:22;;;;;;;13.27;11.77;;;15.60;99.90;;;;;;5079403;28;20545;-81
2021/06/23 04:39:49;;;;;;;15.17;12.80;;;15.60;99.90;;;;;;5060084;28;20892;-81
2021/06/23 04:42:16;;;;;;;13.23;11.60;;;15.60;99.90;;;;;;5068053;28;21031;-84
2021/06/23 04:44:43;;;;;;;14.93;11.90;;;15.70;99.90;;;;;;5068130;28;20494;-82
2021/06/23 04:47:10;;;;;;;14.03;11.90;;;15.70;99.90;;;;;;5074908;28;20468;-82
2021/06/23 04:49:39;;;;;;;14.07;11.33;;;15.70;99.90;;;;;;5065824;28;20979;-81
2021/06/23 04:52:06;;;;;;;22.50;13.57;;;15.70;99.90;;;;;;5075959;28;20462;-82
2021/06/23 04:54:33;;;;;;;22.83;14.07;;;15.70;99.90;;;;;;5075920;28;20465;-82
2021/06/23 04:57:00;;;;;;;14.70;11.97;;;15.60;99.90;;;;;;5069915;28;20504;-83
2021/06/23 04:59:29;;;;;;;14.13;12.30;;;15.70;99.90;;;;;;5070492;28;20487;-82
2021/06/23 05:01:55;;;;;;;22.70;11.43;;;15.70;99.90;;;;;;5073473;28;20511;-83
2021/06/23 05:04:22;;;;;;;16.43;12.63;;;15.70;99.90;;;;;;5075849;28;20485;-83
2021/06/23 05:06:51;;;;;;;15.33;12.33;;;15.70;99.90;;;;;;5076671;28;20473;-84
2021/06/23 05:09:18;;;;;;;18.87;12.20;;;15.70;99.90;;;;;;5068529;28;20470;-82
2021/06/23 05:11:45;;;;;;;19.90;11.57;;;15.70;99.90;;;;;;5066167;28;20469;-82
2021/06/23 05:14:12;;;;;;;15.27;12.93;;;15.70;99.90;;;;;;5065617;28;20470;-82
2021/06/23 05:16:39;;;;;;;13.00;11.23;;;15.70;99.90;;;;;;5075513;28;20624;-83
2021/06/23 05:19:06;;;;;;;14.83;12.17;;;15.70;99.90;;;;;;5080484;28;20464;-82
2021/06/23 05:21:34;;;;;;;17.97;12.73;;;15.80;99.90;;;;;;5070995;28;20468;-83
2021/06/23 05:24:03;;;;;;;16.97;12.37;;;15.80;99.90;;;;;;5077932;28;20583;-83
2021/06/23 05:26:30;;;;;;;14.43;11.50;;;15.80;99.90;;;;;;5081170;28;20488;-81
2021/06/23 05:28:57;;;;;;;19.50;12.77;;;15.90;99.90;;;;;;5081900;28;20468;-83
2021/06/23 05:31:24;;;;;;;17.37;12.77;;;16.00;99.90;;;;;;5087019;28;20473;-82
2021/06/23 05:33:52;;;;;;;21.20;12.73;;;15.90;99.90;;;;;;5084273;28;20462;-81
2021/06/23 05:36:19;;;;;;;14.83;13.23;;;15.90;99.90;;;;;;5080704;28;20549;-82
2021/06/23 05:38:47;;;;;;;15.90;11.17;;;16.00;99.90;;;;;;5082340;28;20468;-81
2021/06/23 05:41:15;;;;;;;16.37;11.50;;;16.00;99.90;;;;;;5074508;28;20459;-81
2021/06/23 05:43:42;;;;;;;16.10;11.63;;;15.90;99.90;;;;;;5086425;28;20489;-82
2021/06/23 05:46:09;;;;;;;17.97;12.00;;;15.90;99.90;;;;;;5088193;28;20459;-82
2021/06/23 05:48:36;;;;;;;14.27;11.53;;;16.00;99.90;;;;;;5080272;28;20459;-81
2021/06/23 05:51:03;;;;;;;16.80;12.33;;;16.00;99.90;;;;;;5083893;28;20459;-82
2021/06/23 05:53:30;;;;;;;17.90;11.77;;;16.00;99.90;;;;;;5078353;28;20459;-81
2021/06/23 05:55:57;;;;;;;13.03;11.60;;;16.10;99.90;;;;;;5083024;28;20545;-82
2021/06/23 05:58:26;;;;;;;19.20;13.13;;;16.10;99.90;;;;;;5077120;28;21219;-81
2021/06/23 06:00:52;;;;;;;16.50;13.17;;;16.10;99.90;;;;;;5069464;28;20495;-83
2021/06/23 06:03:19;;;;;;;12.50;10.93;;;16.10;99.90;;;;;;5076005;28;21193;-82
2021/06/23 06:05:47;;;;;;;20.13;12.67;;;16.10;99.90;;;;;;5073837;28;20463;-84
2021/06/23 06:08:14;;;;;;;17.80;11.37;;;16.10;99.90;;;;;;5082532;28;20464;-81
2021/06/23 06:10:41;;;;;;;16.33;11.00;;;16.10;99.90;;;;;;5083093;28;20466;-82
2021/06/23 06:13:08;;;;;;;20.53;13.23;;;16.10;99.90;;;;;;5077753;28;21001;-80
2021/06/23 06:15:36;;;;;;;16.87;11.60;;;16.10;99.90;;;;;;5071964;28;20462;-82
2021/06/23 06:18:04;;;;;;;16.00;12.10;;;16.20;99.90;;;;;;5074390;28;20976;-82
2021/06/23 06:20:32;;;;;;;16.90;11.60;;;16.20;99.90;;;;;;5076424;28;20482;-82
2021/06/23 06:22:59;;;;;;;14.03;11.77;;;16.20;99.90;;;;;;5068386;28;20508;-82
2021/06/23 06:25:27;;;;;;;19.03;11.70;;;16.20;99.90;;;;;;5065358;28;20477;-81
2021/06/23 06:27:54;;;;;;;17.10;12.93;;;16.20;99.90;;;;;;5068864;28;20828;-81
2021/06/23 06:30:23;;;;;;;15.13;11.87;;;16.10;99.90;;;;;;5067602;28;20465;-82
2021/06/23 06:32:51;;;;;;;17.03;12.00;;;16.10;99.90;;;;;;5069690;28;20467;-82
2021/06/23 06:35:19;;;;;;;14.80;12.83;;;16.20;99.90;;;;;;5078033;28;20891;-83
2021/06/23 06:37:46;;;;;;;19.00;13.53;;;16.20;99.90;;;;;;5073323;28;20545;-81
2021/06/23 06:40:14;;;;;;;31.53;12.90;;;16.20;99.90;;;;;;5074473;28;20468;-81
2021/06/23 06:42:41;;;;;;;30.87;13.70;;;16.20;99.90;;;;;;5064643;28;20454;-82
2021/06/23 06:45:09;;;;;;;21.23;12.00;;;16.10;99.90;;;;;;5069698;28;21265;-81
2021/06/23 06:47:35;;;;;;;15.93;12.97;;;16.20;99.90;;;;;;5078325;28;20458;-82
2021/06/23 06:50:05;;;;;;;15.63;12.30;;;16.20;99.90;;;;;;5073187;28;20462;-82
2021/06/23 06:52:32;;;;;;;14.37;11.43;;;16.20;99.90;;;;;;5067696;28;20485;-81
2021/06/23 06:55:00;;;;;;;14.63;11.60;;;16.20;99.90;;;;;;5075638;28;20957;-83
2021/06/23 06:57:27;;;;;;;18.97;12.57;;;16.20;99.90;;;;;;5072537;28;20511;-82
2021/06/23 06:59:54;;;;;;;13.27;11.83;;;16.20;99.90;;;;;;5078141;28;20471;-81
2021/06/23 07:02:21;;;;;;;14.70;11.83;;;16.20;99.90;;;;;;5080437;28;20485;-81
2021/06/23 07:04:48;;;;;;;14.27;12.33;;;16.30;99.90;;;;;;5075095;28;20877;-82
2021/06/23 07:07:16;;;;;;;23.60;12.53;;;16.30;99.90;;;;;;5073244;28;20463;-81
2021/06/23 07:09:43;;;;;;;17.67;12.57;;;16.40;99.90;;;;;;5076022;28;20466;-82
2021/06/23 07:12:11;;;;;;;19.07;12.43;;;16.40;99.90;;;;;;5076895;28;20472;-83
2021/06/23 07:14:38;;;;;;;16.17;11.63;;;16.40;99.90;;;;;;5075778;28;20512;-82
2021/06/23 07:17:05;;;;;;;16.30;10.90;;;16.40;99.90;;;;;;5068987;28;20460;-81
2021/06/23 07:19:32;;;;;;;17.97;12.57;;;16.40;99.90;;;;;;5071103;28;20505;-81
2021/06/23 07:21:59;;;;;;;16.73;11.93;;;16.40;99.90;;;;;;5076250;28;20466;-83
2021/06/23 07:24:27;;;;;;;17.30;12.03;;;16.40;99.90;;;;;;5071840;28;20489;-82
2021/06/23 07:26:58;;;;;;;21.60;13.07;;;16.50;99.90;;;;;;5071590;28;20530;-81
2021/06/23 07:29:25;;;;;;;16.40;12.10;;;16.50;99.90;;;;;;5077777;28;20467;-82
2021/06/23 07:31:56;;;;;;;16.07;12.43;;;16.60;99.90;;;;;;5075835;28;20470;-82
2021/06/23 07:37:20;;;;;;;14.33;12.20;;;16.60;99.90;;;;;;5005688;28;20823;-82
2021/06/23 07:39:49;;;;;;;19.53;12.50;;;16.60;99.90;;;;;;5059785;28;21152;-83
2021/06/23 07:42:16;;;;;;;22.33;11.40;;;16.60;99.90;;;;;;5071825;28;20460;-85
2021/06/23 07:44:45;;;;;;;18.53;12.77;;;16.60;99.90;;;;;;5066724;28;20505;-85
2021/06/23 07:47:16;;;;;;;16.33;13.37;;;16.60;99.90;;;;;;5068152;28;20860;-82
2021/06/23 07:49:44;;;;;;;20.93;13.97;;;16.70;99.90;;;;;;5069668;28;20465;-84
2021/06/23 07:52:15;;;;;;;16.47;12.07;;;16.70;99.90;;;;;;5061535;28;21185;-83
2021/06/23 08:08:44;;;;;;;21.57;12.53;;;16.80;99.90;;;;;;5073786;28;20546;-83
2021/06/23 08:11:17;;;;;;;22.80;13.43;;;16.70;99.90;;;;;;5074871;28;20465;-84
2021/06/23 08:13:46;;;;;;;15.80;12.87;;;16.70;99.90;;;;;;5069173;28;21064;-83
2021/06/23 08:16:13;;;;;;;15.33;11.60;;;16.70;99.90;;;;;;5070745;28;20489;-86
2021/06/23 08:18:40;;;;;;;19.03;13.80;;;16.70;99.90;;;;;;5071596;28;21029;-86
2021/06/23 08:21:08;;;;;;;12.43;10.87;;;16.80;99.90;;;;;;5070896;28;20495;-84
2021/06/23 08:23:35;;;;;;;21.53;12.23;;;16.80;99.90;;;;;;5069959;28;20970;-84
2021/06/23 08:26:02;;;;;;;18.13;12.07;;;16.90;99.90;;;;;;5075364;28;20463;-86
2021/06/23 08:28:28;;;;;;;14.70;11.37;;;16.90;99.90;;;;;;5065218;28;20462;-84
2021/06/23 08:30:57;;;;;;;16.87;13.90;;;17.00;99.90;;;;;;5072309;28;20546;-84
2021/06/23 08:33:26;;;;;;;18.97;12.97;;;17.00;99.90;;;;;;5073665;28;20546;-86
2021/06/23 08:35:53;;;;;;;18.00;11.80;;;17.10;99.90;;;;;;5069926;28;20461;-87
2021/06/23 08:38:20;;;;;;;25.53;13.13;;;17.10;99.90;;;;;;5074610;28;20467;-85
2021/06/23 08:40:48;;;;;;;18.63;12.43;;;17.00;99.90;;;;;;5073764;28;21195;-86
2021/06/23 08:43:15;;;;;;;26.43;13.00;;;17.10;99.90;;;;;;5073188;28;20470;-87
2021/06/23 08:45:43;;;;;;;17.83;12.80;;;17.00;99.90;;;;;;5069451;28;20462;-84
2021/06/23 08:48:12;;;;;;;22.50;12.87;;;17.10;99.90;;;;;;5072312;28;20453;-84
2021/06/23 08:50:39;;;;;;;16.70;12.43;;;17.10;99.90;;;;;;5070945;28;20484;-82
2021/06/23 08:53:07;;;;;;;17.13;12.40;;;17.10;99.90;;;;;;5069042;28;20963;-84
2021/06/23 08:55:34;;;;;;;19.97;13.60;;;17.10;99.90;;;;;;5074355;28;20989;-81
2021/06/23 08:58:01;;;;;;;15.27;13.63;;;17.10;99.90;;;;;;5070866;28;20545;-81
2021/06/23 09:00:28;;;;;;;27.10;13.50;;;17.20;99.90;;;;;;5066674;28;20578;-82
2021/06/23 09:03:00;;;;;;;22.93;15.13;;;17.20;99.90;;;;;;5076528;28;20457;-81
2021/06/23 09:05:55;;;;;;;24.40;16.50;;;17.10;99.90;;;;;;5072264;28;21341;-81
2021/06/23 09:08:34;;;;;;;26.23;16.37;;;17.00;99.90;;;;;;5076240;28;20473;-81
2021/06/23 09:11:01;;;;;;;16.60;14.80;;;17.00;99.90;;;;;;5069427;28;20670;-82
2021/06/23 09:13:29;;;;;;;23.00;16.17;;;17.00;99.90;;;;;;5074317;28;20463;-80
2021/06/23 09:15:59;;;;;;;21.00;17.00;;;16.90;99.90;;;;;;5073436;28;20458;-82
2021/06/23 09:18:27;;;;;;;19.53;16.03;;;17.00;99.90;;;;;;5073646;28;20545;-81
2021/06/23 09:20:58;;;;;;;21.47;16.30;;;17.00;99.90;;;;;;5079094;28;20490;-80
2021/06/23 09:23:47;;;;;;;23.03;16.50;;;17.00;99.90;;;;;;5078493;28;20474;-81
2021/06/23 09:26:20;;;;;;;23.07;17.07;;;17.00;99.90;;;;;;5078195;28;21454;-81
2021/06/23 09:29:05;;;;;;;19.83;15.50;;;17.00;99.90;;;;;;5075778;28;21061;-81
2021/06/23 09:31:54;;;;;;;22.90;17.93;;;16.90;99.90;;;;;;5076495;28;20481;-80
2021/06/23 09:34:22;;;;;;;21.83;16.20;;;17.00;99.90;;;;;;5075147;28;20467;-82
2021/06/23 09:36:51;;;;;;;22.50;17.83;;;17.00;99.90;;;;;;5076842;28;20965;-81
2021/06/23 09:39:22;;;;;;;26.13;17.47;;;17.10;99.90;;;;;;5080369;28;20608;-80
2021/06/23 09:41:50;;;;;;;26.40;19.00;;;17.10;99.90;;;;;;5079977;28;20475;-81
2021/06/23 09:44:17;;;;;;;24.60;20.10;;;17.10;99.90;;;;;;5079021;28;20497;-81
2021/06/23 09:46:46;;;;;;;23.37;20.97;;;17.10;99.90;;;;;;5080096;28;20834;-81
2021/06/23 09:49:15;;;;;;;26.37;19.90;;;17.20;99.90;;;;;;5079061;28;20866;-81
2021/06/23 09:51:50;;;;;;;21.73;17.70;;;17.20;99.90;;;;;;5079906;28;20477;-80
2021/06/23 09:54:20;;;;;;;21.80;19.17;;;17.20;99.90;;;;;;5080300;28;20553;-80
2021/06/23 09:56:48;;;;;;;23.73;18.83;;;17.20;99.90;;;;;;5074481;28;20473;-80
2021/06/23 09:59:34;;;;;;;24.10;18.33;;;17.20;99.90;;;;;;5072556;28;20462;-81
2021/06/23 10:02:01;;;;;;;32.23;18.70;;;17.20;99.90;;;;;;5073462;28;20479;-82
2021/06/23 10:04:36;;;;;;;22.23;17.40;;;17.30;99.90;;;;;;5077911;28;20493;-81
2021/06/23 10:07:05;;;;;;;19.50;17.13;;;17.30;99.90;;;;;;5074269;28;20466;-82
2021/06/23 10:09:33;;;;;;;21.47;17.50;;;17.40;99.90;;;;;;5077743;28;20906;-82
2021/06/23 10:12:02;;;;;;;24.50;18.70;;;17.50;99.90;;;;;;5071008;28;20555;-81
2021/06/23 10:14:32;;;;;;;21.80;18.73;;;17.50;99.90;;;;;;5070058;28;20508;-81
2021/06/23 10:17:01;;;;;;;24.20;17.50;;;17.60;99.90;;;;;;5072675;28;20470;-81
2021/06/23 10:19:29;;;;;;;24.57;19.57;;;17.70;99.90;;;;;;5070901;28;20985;-82
2021/06/23 10:21:57;;;;;;;20.83;18.63;;;17.70;99.90;;;;;;5073029;28;20468;-81
2021/06/23 10:24:28;;;;;;;25.00;18.43;;;17.80;99.90;;;;;;5073250;28;20911;-81
2021/06/23 10:26:58;;;;;;;35.00;20.53;;;17.90;99.90;;;;;;5071614;28;20498;-82
2021/06/23 10:29:27;;;;;;;25.23;18.40;;;17.90;99.90;;;;;;5067226;28;20453;-81
2021/06/23 10:31:54;;;;;;;22.53;18.27;;;17.90;99.90;;;;;;5073784;28;20478;-80
2021/06/23 10:34:22;;;;;;;23.43;17.57;;;17.90;99.90;;;;;;5070027;28;20461;-80
2021/06/23 10:36:50;;;;;;;26.53;16.40;;;17.90;99.90;;;;;;5073273;28;20465;-81
2021/06/23 10:39:19;;;;;;;26.60;16.87;;;17.90;99.90;;;;;;5080057;28;20517;-81
2021/06/23 10:41:50;;;;;;;26.77;18.80;;;17.90;99.90;;;;;;5075556;28;20607;-84
2021/06/23 10:44:21;;;;;;;23.10;15.73;;;18.00;99.90;;;;;;5073391;28;20872;-82
2021/06/23 10:46:50;;;;;;;18.50;15.83;;;18.00;99.90;;;;;;5072744;28;20469;-82
2021/06/23 10:49:37;;;;;;;21.63;14.83;;;18.00;99.90;;;;;;5073257;28;20468;-82
2021/06/23 10:52:38;;;;;;;21.20;15.17;;;18.00;99.90;;;;;;5076458;28;20507;-83
2021/06/23 10:55:08;;;;;;;22.43;16.80;;;18.00;99.90;;;;;;5076476;28;20476;-82
2021/06/23 10:57:43;;;;;;;22.60;16.10;;;18.00;99.90;;;;;;5073051;28;20835;-82
2021/06/23 11:00:35;;;;;;;27.20;15.87;;;17.90;99.90;;;;;;5077414;28;20464;-82
2021/06/23 11:03:05;;;;;;;21.90;14.80;;;17.80;99.90;;;;;;5055494;28;20468;-82
2021/06/23 11:05:53;;;;;;;18.17;14.30;;;17.80;99.90;;;;;;5072092;28;20500;-83
2021/06/23 11:08:33;;;;;;;24.27;15.63;;;17.90;99.90;;;;;;5065678;28;20988;-83
2021/06/23 11:11:05;;;;;;;17.37;14.17;;;18.00;99.90;;;;;;5068883;28;20558;-83
2021/06/23 11:13:33;;;;;;;18.80;13.73;;;18.10;99.90;;;;;;5078808;28;20466;-82
2021/06/23 11:16:02;;;;;;;24.43;14.87;;;18.10;99.90;;;;;;5073441;28;20457;-82
2021/06/23 11:18:32;;;;;;;16.97;14.53;;;18.10;99.90;;;;;;5077762;28;20468;-82
2021/06/23 11:21:01;;;;;;;21.50;14.60;;;18.20;99.90;;;;;;5077937;28;20513;-82
2021/06/23 11:23:43;;;;;;;23.90;14.30;;;18.10;99.90;;;;;;5074716;28;20560;-81
2021/06/23 11:26:31;;;;;;;25.57;14.00;;;18.10;99.90;;;;;;5067930;28;20578;-81
2021/06/23 11:29:27;;;;;;;19.90;13.20;;;18.20;99.90;;;;;;5072665;28;20815;-81
2021/06/23 11:31:58;;;;;;;16.60;12.97;;;18.20;99.90;;;;;;5069743;28;20587;-82
2021/06/23 11:34:55;;;;;;;18.93;12.63;;;18.20;99.90;;;;;;5075140;28;20479;-82
2021/06/23 11:37:27;;;;;;;18.97;12.33;;;18.30;99.90;;;;;;5073245;28;20471;-82
2021/06/23 11:40:18;;;;;;;17.90;10.87;;;18.50;99.90;;;;;;5081359;28;20545;-81
2021/06/23 11:42:46;;;;;;;18.80;11.83;;;18.70;99.90;;;;;;5067230;28;20483;-81
2021/06/23 11:45:15;;;;;;;19.77;13.03;;;18.90;99.90;;;;;;5074707;28;20492;-82
2021/06/23 11:47:42;;;;;;;17.03;12.83;;;19.00;99.90;;;;;;5073770;28;20542;-82
2021/06/23 11:50:10;;;;;;;16.43;12.70;;;19.10;99.90;;;;;;5075804;28;20949;-82
2021/06/23 11:52:37;;;;;;;15.30;12.50;;;19.10;99.90;;;;;;5072101;28;20457;-82
2021/06/23 11:55:05;;;;;;;13.00;11.63;;;19.20;99.90;;;;;;5076908;28;20499;-81
2021/06/23 11:57:32;;;;;;;14.90;11.60;;;19.30;99.90;;;;;;5072030;28;20474;-81
2021/06/23 11:59:59;;;;;;;15.80;11.47;;;19.40;99.90;;;;;;5072779;28;20969;-82
2021/06/23 12:02:28;;;;;;;18.40;12.30;;;19.50;99.90;;;;;;5075072;28;20485;-82
2021/06/23 12:04:55;;;;;;;14.30;11.70;;;19.50;99.90;;;;;;5066343;28;20585;-81
2021/06/23 12:07:22;;;;;;;13.37;10.33;;;19.60;99.90;;;;;;5074839;28;20465;-81
2021/06/23 12:09:49;;;;;;;14.07;12.70;;;19.60;99.90;;;;;;5075829;28;20469;-81
2021/06/23 12:12:16;;;;;;;15.00;12.00;;;19.50;99.90;;;;;;5070090;28;21021;-82
2021/06/23 12:14:43;;;;;;;14.90;12.33;;;19.50;99.90;;;;;;5072201;28;20470;-81
2021/06/23 12:17:10;;;;;;;15.90;11.73;;;19.40;99.90;;;;;;5073959;28;20476;-81
2021/06/23 12:19:40;;;;;;;16.60;12.50;;;19.40;99.90;;;;;;5077019;28;20635;-81
2021/06/23 12:22:09;;;;;;;16.33;14.20;;;19.40;99.90;;;;;;5069192;28;20543;-81
2021/06/23 12:24:36;;;;;;;15.27;13.07;;;19.40;99.90;;;;;;5073001;28;20898;-81
2021/06/23 12:27:03;;;;;;;12.83;11.57;;;19.40;99.90;;;;;;5074822;28;20546;-81
2021/06/23 12:29:30;;;;;;;18.80;13.00;;;19.50;99.90;;;;;;5078790;28;21119;-81
2021/06/23 12:32:01;;;;;;;20.93;13.77;;;19.50;99.90;;;;;;5079218;28;20462;-81
2021/06/23 12:34:28;;;;;;;18.73;12.23;;;19.50;99.90;;;;;;5079009;28;20465;-81
2021/06/23 12:36:56;;;;;;;17.37;12.33;;;19.50;99.90;;;;;;5076148;28;20567;-81
2021/06/23 12:39:23;;;;;;;19.70;12.90;;;19.50;99.90;;;;;;5075868;28;20971;-82
2021/06/23 12:41:50;;;;;;;14.87;12.07;;;19.50;99.90;;;;;;5078375;28;20489;-82
2021/06/23 12:44:17;;;;;;;19.77;12.60;;;19.50;99.90;;;;;;5074779;28;20468;-82
2021/06/23 12:46:44;;;;;;;17.80;12.10;;;19.50;99.90;;;;;;5083623;28;21015;-82
2021/06/23 12:49:11;;;;;;;22.60;11.70;;;19.60;99.90;;;;;;5079001;28;20465;-82
2021/06/23 12:51:38;;;;;;;18.70;12.97;;;19.70;99.90;;;;;;5074045;28;20477;-81
2021/06/23 12:54:07;;;;;;;21.00;13.20;;;19.70;99.90;;;;;;5075428;28;20965;-82
2021/06/23 12:56:34;;;;;;;13.50;12.00;;;19.80;99.90;;;;;;5076428;28;20979;-81